sensor_id;sensor_type;location;lat;lon;timestamp;P1;durP1;ratioP1;P2;durP2;ratioP2
75847;SDS011;73195;47.532;19.082;2023-11-18T00:00:49;7.12;;;3.12;;
75847;SDS011;73195;47.532;19.082;2023-11-18T00:03:17;7.00;;;3.17;;
75847;SDS011;73195;47.532;19.082;2023-11-18T00:05:44;7.25;;;3.25;;
75847;SDS011;73195;47.532;19.082;2023-11-18T00:08:12;7.22;;;3.28;;
75847;SDS011;73195;47.532;19.082;2023-11-18T00:10:39;7.80;;;3.47;;
75847;SDS011;73195;47.532;19.082;2023-11-18T00:13:07;6.40;;;3.00;;
75847;SDS011;73195;47.532;19.082;2023-11-18T00:15:34;6.87;;;3.12;;
75847;SDS011;73195;47.532;19.082;2023-11-18T00:18:01;6.12;;;3.03;;
75847;SDS011;73195;47.532;19.082;2023-11-18T00:20:28;5.90;;;3.30;;
75847;SDS011;73195;47.532;19.082;2023-11-18T00:22:56;6.50;;;3.75;;
75847;SDS011;73195;47.532;19.082;2023-11-18T00:25:24;7.55;;;3.55;;
75847;SDS011;73195;47.532;19.082;2023-11-18T00:27:51;6.35;;;3.50;;
75847;SDS011;73195;47.532;19.082;2023-11-18T00:30:20;7.95;;;3.33;;
75847;SDS011;73195;47.532;19.082;2023-11-18T00:32:47;6.30;;;3.30;;
75847;SDS011;73195;47.532;19.082;2023-11-18T00:35:14;6.00;;;3.30;;
75847;SDS011;73195;47.532;19.082;2023-11-18T00:37:41;6.60;;;3.60;;
75847;SDS011;73195;47.532;19.082;2023-11-18T00:40:09;6.65;;;3.45;;
75847;SDS011;73195;47.532;19.082;2023-11-18T00:42:38;7.12;;;3.50;;
75847;SDS011;73195;47.532;19.082;2023-11-18T00:45:05;7.82;;;4.05;;
75847;SDS011;73195;47.532;19.082;2023-11-18T00:47:34;6.00;;;3.30;;
75847;SDS011;73195;47.532;19.082;2023-11-18T00:50:01;7.78;;;3.40;;
75847;SDS011;73195;47.532;19.082;2023-11-18T00:52:29;6.85;;;4.05;;
75847;SDS011;73195;47.532;19.082;2023-11-18T00:54:56;7.80;;;3.70;;
75847;SDS011;73195;47.532;19.082;2023-11-18T00:57:24;6.32;;;3.53;;
75847;SDS011;73195;47.532;19.082;2023-11-18T00:59:52;6.37;;;3.40;;
75847;SDS011;73195;47.532;19.082;2023-11-18T01:02:19;6.72;;;3.45;;
75847;SDS011;73195;47.532;19.082;2023-11-18T01:04:47;6.25;;;3.45;;
75847;SDS011;73195;47.532;19.082;2023-11-18T01:07:14;7.12;;;3.80;;
75847;SDS011;73195;47.532;19.082;2023-11-18T01:09:41;7.55;;;3.40;;
75847;SDS011;73195;47.532;19.082;2023-11-18T01:12:08;7.25;;;3.97;;
75847;SDS011;73195;47.532;19.082;2023-11-18T01:14:36;7.00;;;3.62;;
75847;SDS011;73195;47.532;19.082;2023-11-18T01:17:05;8.38;;;3.75;;
75847;SDS011;73195;47.532;19.082;2023-11-18T01:19:32;6.75;;;3.70;;
75847;SDS011;73195;47.532;19.082;2023-11-18T01:21:59;6.85;;;3.47;;
75847;SDS011;73195;47.532;19.082;2023-11-18T01:24:31;6.50;;;3.58;;
75847;SDS011;73195;47.532;19.082;2023-11-18T01:26:59;6.15;;;3.20;;
75847;SDS011;73195;47.532;19.082;2023-11-18T01:29:26;6.78;;;3.42;;
75847;SDS011;73195;47.532;19.082;2023-11-18T01:31:53;7.28;;;3.80;;
75847;SDS011;73195;47.532;19.082;2023-11-18T01:34:23;7.15;;;3.78;;
75847;SDS011;73195;47.532;19.082;2023-11-18T01:36:51;6.68;;;3.42;;
75847;SDS011;73195;47.532;19.082;2023-11-18T01:39:18;6.45;;;3.35;;
75847;SDS011;73195;47.532;19.082;2023-11-18T01:41:46;5.62;;;2.90;;
75847;SDS011;73195;47.532;19.082;2023-11-18T01:44:14;6.93;;;3.45;;
75847;SDS011;73195;47.532;19.082;2023-11-18T01:46:41;6.57;;;3.30;;
75847;SDS011;73195;47.532;19.082;2023-11-18T01:49:10;6.90;;;3.30;;
75847;SDS011;73195;47.532;19.082;2023-11-18T01:51:40;6.18;;;3.37;;
75847;SDS011;73195;47.532;19.082;2023-11-18T01:54:08;5.50;;;2.90;;
75847;SDS011;73195;47.532;19.082;2023-11-18T01:56:40;5.62;;;3.08;;
75847;SDS011;73195;47.532;19.082;2023-11-18T01:59:09;7.78;;;3.22;;
75847;SDS011;73195;47.532;19.082;2023-11-18T02:01:44;5.95;;;3.22;;
75847;SDS011;73195;47.532;19.082;2023-11-18T02:04:12;7.43;;;3.37;;
75847;SDS011;73195;47.532;19.082;2023-11-18T02:06:41;6.03;;;3.25;;
75847;SDS011;73195;47.532;19.082;2023-11-18T02:09:08;6.55;;;3.22;;
75847;SDS011;73195;47.532;19.082;2023-11-18T02:11:36;7.30;;;3.30;;
75847;SDS011;73195;47.532;19.082;2023-11-18T02:14:07;7.55;;;3.10;;
75847;SDS011;73195;47.532;19.082;2023-11-18T02:16:36;5.85;;;2.95;;
75847;SDS011;73195;47.532;19.082;2023-11-18T02:19:04;6.00;;;2.75;;
75847;SDS011;73195;47.532;19.082;2023-11-18T02:21:36;5.37;;;2.78;;
75847;SDS011;73195;47.532;19.082;2023-11-18T02:24:05;5.93;;;3.15;;
75847;SDS011;73195;47.532;19.082;2023-11-18T02:26:34;5.55;;;2.72;;
75847;SDS011;73195;47.532;19.082;2023-11-18T02:29:01;7.15;;;3.00;;
75847;SDS011;73195;47.532;19.082;2023-11-18T02:31:31;6.18;;;3.20;;
75847;SDS011;73195;47.532;19.082;2023-11-18T02:34:05;5.50;;;2.50;;
75847;SDS011;73195;47.532;19.082;2023-11-18T02:36:34;4.78;;;2.50;;
75847;SDS011;73195;47.532;19.082;2023-11-18T02:39:04;5.60;;;2.83;;
75847;SDS011;73195;47.532;19.082;2023-11-18T02:41:38;5.82;;;3.00;;
75847;SDS011;73195;47.532;19.082;2023-11-18T02:44:06;7.70;;;3.08;;
75847;SDS011;73195;47.532;19.082;2023-11-18T02:46:36;5.72;;;2.92;;
75847;SDS011;73195;47.532;19.082;2023-11-18T02:49:03;6.70;;;3.05;;
75847;SDS011;73195;47.532;19.082;2023-11-18T02:51:30;5.87;;;3.08;;
75847;SDS011;73195;47.532;19.082;2023-11-18T02:53:59;6.32;;;3.40;;
75847;SDS011;73195;47.532;19.082;2023-11-18T02:56:26;6.12;;;2.85;;
75847;SDS011;73195;47.532;19.082;2023-11-18T02:58:55;6.78;;;2.70;;
75847;SDS011;73195;47.532;19.082;2023-11-18T03:01:23;5.40;;;2.75;;
75847;SDS011;73195;47.532;19.082;2023-11-18T03:03:50;5.07;;;2.58;;
75847;SDS011;73195;47.532;19.082;2023-11-18T03:06:17;6.25;;;2.83;;
75847;SDS011;73195;47.532;19.082;2023-11-18T03:08:45;5.20;;;2.97;;
75847;SDS011;73195;47.532;19.082;2023-11-18T03:11:12;5.37;;;2.50;;
75847;SDS011;73195;47.532;19.082;2023-11-18T03:13:39;6.37;;;2.67;;
75847;SDS011;73195;47.532;19.082;2023-11-18T03:16:08;5.47;;;2.50;;
75847;SDS011;73195;47.532;19.082;2023-11-18T03:18:37;5.40;;;2.90;;
75847;SDS011;73195;47.532;19.082;2023-11-18T03:21:06;4.93;;;2.72;;
75847;SDS011;73195;47.532;19.082;2023-11-18T03:23:33;4.82;;;2.65;;
75847;SDS011;73195;47.532;19.082;2023-11-18T03:26:00;4.93;;;2.78;;
75847;SDS011;73195;47.532;19.082;2023-11-18T03:28:27;5.85;;;2.55;;
75847;SDS011;73195;47.532;19.082;2023-11-18T03:30:55;6.20;;;2.92;;
75847;SDS011;73195;47.532;19.082;2023-11-18T03:33:24;6.37;;;3.05;;
75847;SDS011;73195;47.532;19.082;2023-11-18T03:35:51;6.47;;;3.20;;
75847;SDS011;73195;47.532;19.082;2023-11-18T03:38:18;5.60;;;2.50;;
75847;SDS011;73195;47.532;19.082;2023-11-18T03:40:45;6.93;;;3.22;;
75847;SDS011;73195;47.532;19.082;2023-11-18T03:43:13;7.28;;;3.20;;
75847;SDS011;73195;47.532;19.082;2023-11-18T03:45:40;6.72;;;3.47;;
75847;SDS011;73195;47.532;19.082;2023-11-18T03:48:07;8.45;;;3.10;;
75847;SDS011;73195;47.532;19.082;2023-11-18T03:50:36;6.68;;;3.28;;
75847;SDS011;73195;47.532;19.082;2023-11-18T03:53:03;6.47;;;3.30;;
75847;SDS011;73195;47.532;19.082;2023-11-18T03:55:30;6.30;;;3.50;;
75847;SDS011;73195;47.532;19.082;2023-11-18T03:57:58;7.35;;;3.37;;
75847;SDS011;73195;47.532;19.082;2023-11-18T04:00:25;7.22;;;3.60;;
75847;SDS011;73195;47.532;19.082;2023-11-18T04:02:55;6.45;;;3.33;;
75847;SDS011;73195;47.532;19.082;2023-11-18T04:05:22;7.45;;;3.35;;
75847;SDS011;73195;47.532;19.082;2023-11-18T04:07:50;7.45;;;3.28;;
75847;SDS011;73195;47.532;19.082;2023-11-18T04:10:17;8.48;;;3.40;;
75847;SDS011;73195;47.532;19.082;2023-11-18T04:12:46;7.22;;;3.50;;
75847;SDS011;73195;47.532;19.082;2023-11-18T04:15:14;7.28;;;3.10;;
75847;SDS011;73195;47.532;19.082;2023-11-18T04:17:42;6.60;;;3.30;;
75847;SDS011;73195;47.532;19.082;2023-11-18T04:20:10;6.28;;;3.33;;
75847;SDS011;73195;47.532;19.082;2023-11-18T04:22:39;5.55;;;2.83;;
75847;SDS011;73195;47.532;19.082;2023-11-18T04:25:09;6.22;;;3.15;;
75847;SDS011;73195;47.532;19.082;2023-11-18T04:27:36;6.93;;;3.45;;
75847;SDS011;73195;47.532;19.082;2023-11-18T04:30:03;6.37;;;3.15;;
75847;SDS011;73195;47.532;19.082;2023-11-18T04:32:32;7.25;;;3.50;;
75847;SDS011;73195;47.532;19.082;2023-11-18T04:34:59;6.25;;;3.10;;
75847;SDS011;73195;47.532;19.082;2023-11-18T04:37:33;7.00;;;3.40;;
75847;SDS011;73195;47.532;19.082;2023-11-18T04:40:00;6.25;;;3.03;;
75847;SDS011;73195;47.532;19.082;2023-11-18T04:42:29;6.45;;;3.30;;
75847;SDS011;73195;47.532;19.082;2023-11-18T04:44:57;6.62;;;2.87;;
75847;SDS011;73195;47.532;19.082;2023-11-18T04:47:24;7.30;;;3.37;;
75847;SDS011;73195;47.532;19.082;2023-11-18T04:49:52;5.53;;;2.85;;
75847;SDS011;73195;47.532;19.082;2023-11-18T04:52:20;8.35;;;3.03;;
75847;SDS011;73195;47.532;19.082;2023-11-18T04:54:47;4.87;;;2.47;;
75847;SDS011;73195;47.532;19.082;2023-11-18T04:57:14;7.18;;;3.30;;
75847;SDS011;73195;47.532;19.082;2023-11-18T04:59:43;6.35;;;2.80;;
75847;SDS011;73195;47.532;19.082;2023-11-18T05:02:10;5.72;;;2.67;;
75847;SDS011;73195;47.532;19.082;2023-11-18T05:04:37;6.93;;;3.20;;
75847;SDS011;73195;47.532;19.082;2023-11-18T05:07:04;5.22;;;2.72;;
75847;SDS011;73195;47.532;19.082;2023-11-18T05:09:31;6.10;;;3.17;;
75847;SDS011;73195;47.532;19.082;2023-11-18T05:12:00;7.57;;;2.78;;
75847;SDS011;73195;47.532;19.082;2023-11-18T05:14:28;6.15;;;2.67;;
75847;SDS011;73195;47.532;19.082;2023-11-18T05:16:56;6.25;;;3.10;;
75847;SDS011;73195;47.532;19.082;2023-11-18T05:19:23;5.93;;;2.78;;
75847;SDS011;73195;47.532;19.082;2023-11-18T05:21:51;6.28;;;2.85;;
75847;SDS011;73195;47.532;19.082;2023-11-18T05:24:19;4.97;;;2.60;;
75847;SDS011;73195;47.532;19.082;2023-11-18T05:26:46;4.40;;;2.25;;
75847;SDS011;73195;47.532;19.082;2023-11-18T05:29:13;4.87;;;2.33;;
75847;SDS011;73195;47.532;19.082;2023-11-18T05:31:42;5.60;;;2.53;;
75847;SDS011;73195;47.532;19.082;2023-11-18T05:34:12;4.97;;;2.30;;
75847;SDS011;73195;47.532;19.082;2023-11-18T05:36:39;4.20;;;2.20;;
75847;SDS011;73195;47.532;19.082;2023-11-18T05:39:06;5.25;;;2.65;;
75847;SDS011;73195;47.532;19.082;2023-11-18T05:41:34;4.50;;;2.40;;
75847;SDS011;73195;47.532;19.082;2023-11-18T05:44:05;4.97;;;2.53;;
75847;SDS011;73195;47.532;19.082;2023-11-18T05:46:34;4.47;;;2.30;;
75847;SDS011;73195;47.532;19.082;2023-11-18T05:49:02;5.37;;;2.53;;
75847;SDS011;73195;47.532;19.082;2023-11-18T05:51:34;6.43;;;2.30;;
75847;SDS011;73195;47.532;19.082;2023-11-18T05:54:01;4.10;;;2.17;;
75847;SDS011;73195;47.532;19.082;2023-11-18T05:56:28;4.87;;;2.33;;
75847;SDS011;73195;47.532;19.082;2023-11-18T05:58:55;5.70;;;2.37;;
75847;SDS011;73195;47.532;19.082;2023-11-18T06:01:23;4.32;;;2.15;;
75847;SDS011;73195;47.532;19.082;2023-11-18T06:03:53;5.65;;;2.47;;
75847;SDS011;73195;47.532;19.082;2023-11-18T06:06:20;6.75;;;2.97;;
75847;SDS011;73195;47.532;19.082;2023-11-18T06:08:48;7.43;;;2.80;;
75847;SDS011;73195;47.532;19.082;2023-11-18T06:11:16;4.70;;;2.50;;
75847;SDS011;73195;47.532;19.082;2023-11-18T06:13:45;5.72;;;2.55;;
75847;SDS011;73195;47.532;19.082;2023-11-18T06:16:13;6.12;;;2.70;;
75847;SDS011;73195;47.532;19.082;2023-11-18T06:18:41;5.32;;;2.58;;
75847;SDS011;73195;47.532;19.082;2023-11-18T06:21:11;5.70;;;2.90;;
75847;SDS011;73195;47.532;19.082;2023-11-18T06:23:40;7.18;;;2.90;;
75847;SDS011;73195;47.532;19.082;2023-11-18T06:26:08;5.68;;;2.80;;
75847;SDS011;73195;47.532;19.082;2023-11-18T06:28:37;5.45;;;2.70;;
75847;SDS011;73195;47.532;19.082;2023-11-18T06:31:05;6.78;;;2.80;;
75847;SDS011;73195;47.532;19.082;2023-11-18T06:33:37;6.18;;;3.00;;
75847;SDS011;73195;47.532;19.082;2023-11-18T06:36:08;6.97;;;2.87;;
75847;SDS011;73195;47.532;19.082;2023-11-18T06:38:36;5.37;;;2.67;;
75847;SDS011;73195;47.532;19.082;2023-11-18T06:41:04;5.12;;;2.50;;
75847;SDS011;73195;47.532;19.082;2023-11-18T06:43:36;5.37;;;2.58;;
75847;SDS011;73195;47.532;19.082;2023-11-18T06:46:20;5.03;;;2.47;;
75847;SDS011;73195;47.532;19.082;2023-11-18T06:48:47;5.25;;;2.70;;
75847;SDS011;73195;47.532;19.082;2023-11-18T06:51:15;4.50;;;2.20;;
75847;SDS011;73195;47.532;19.082;2023-11-18T06:53:42;5.30;;;2.50;;
75847;SDS011;73195;47.532;19.082;2023-11-18T06:56:10;4.60;;;2.40;;
75847;SDS011;73195;47.532;19.082;2023-11-18T06:58:39;5.55;;;2.70;;
75847;SDS011;73195;47.532;19.082;2023-11-18T07:01:07;5.53;;;2.60;;
75847;SDS011;73195;47.532;19.082;2023-11-18T07:03:35;5.20;;;2.22;;
75847;SDS011;73195;47.532;19.082;2023-11-18T07:06:02;11.12;;;2.25;;
75847;SDS011;73195;47.532;19.082;2023-11-18T07:08:31;4.95;;;2.45;;
75847;SDS011;73195;47.532;19.082;2023-11-18T07:10:58;4.78;;;2.30;;
75847;SDS011;73195;47.532;19.082;2023-11-18T07:13:27;4.25;;;2.20;;
75847;SDS011;73195;47.532;19.082;2023-11-18T07:15:55;4.25;;;2.12;;
75847;SDS011;73195;47.532;19.082;2023-11-18T07:18:23;6.85;;;2.30;;
75847;SDS011;73195;47.532;19.082;2023-11-18T07:20:50;5.18;;;1.85;;
75847;SDS011;73195;47.532;19.082;2023-11-18T07:23:18;6.43;;;2.10;;
75847;SDS011;73195;47.532;19.082;2023-11-18T07:25:45;5.05;;;2.05;;
75847;SDS011;73195;47.532;19.082;2023-11-18T07:28:12;3.37;;;1.62;;
75847;SDS011;73195;47.532;19.082;2023-11-18T07:30:41;4.10;;;1.73;;
75847;SDS011;73195;47.532;19.082;2023-11-18T07:33:09;4.72;;;1.80;;
75847;SDS011;73195;47.532;19.082;2023-11-18T07:35:36;4.07;;;1.80;;
75847;SDS011;73195;47.532;19.082;2023-11-18T07:38:03;4.37;;;1.73;;
75847;SDS011;73195;47.532;19.082;2023-11-18T07:40:32;4.15;;;1.30;;
75847;SDS011;73195;47.532;19.082;2023-11-18T07:42:59;3.92;;;1.65;;
75847;SDS011;73195;47.532;19.082;2023-11-18T07:45:28;6.82;;;1.55;;
75847;SDS011;73195;47.532;19.082;2023-11-18T07:48:03;6.40;;;2.00;;
75847;SDS011;73195;47.532;19.082;2023-11-18T07:50:34;5.45;;;1.87;;
75847;SDS011;73195;47.532;19.082;2023-11-18T07:53:01;4.60;;;1.80;;
75847;SDS011;73195;47.532;19.082;2023-11-18T07:55:29;4.00;;;1.65;;
75847;SDS011;73195;47.532;19.082;2023-11-18T07:58:00;7.07;;;1.77;;
75847;SDS011;73195;47.532;19.082;2023-11-18T08:00:27;6.35;;;1.87;;
75847;SDS011;73195;47.532;19.082;2023-11-18T08:02:56;3.53;;;1.60;;
75847;SDS011;73195;47.532;19.082;2023-11-18T08:05:25;5.62;;;1.70;;
75847;SDS011;73195;47.532;19.082;2023-11-18T08:07:55;3.97;;;1.55;;
75847;SDS011;73195;47.532;19.082;2023-11-18T08:10:22;5.57;;;1.83;;
75847;SDS011;73195;47.532;19.082;2023-11-18T08:12:50;6.55;;;1.42;;
75847;SDS011;73195;47.532;19.082;2023-11-18T08:15:17;5.32;;;1.80;;
75847;SDS011;73195;47.532;19.082;2023-11-18T08:17:45;3.45;;;1.40;;
75847;SDS011;73195;47.532;19.082;2023-11-18T08:20:12;2.87;;;1.08;;
75847;SDS011;73195;47.532;19.082;2023-11-18T08:22:40;5.43;;;1.75;;
75847;SDS011;73195;47.532;19.082;2023-11-18T08:25:11;3.53;;;1.27;;
75847;SDS011;73195;47.532;19.082;2023-11-18T08:27:38;3.85;;;2.00;;
75847;SDS011;73195;47.532;19.082;2023-11-18T08:30:06;4.15;;;1.30;;
75847;SDS011;73195;47.532;19.082;2023-11-18T08:32:36;3.78;;;1.20;;
75847;SDS011;73195;47.532;19.082;2023-11-18T08:35:05;5.72;;;1.37;;
75847;SDS011;73195;47.532;19.082;2023-11-18T08:37:33;2.97;;;1.30;;
75847;SDS011;73195;47.532;19.082;2023-11-18T08:40:01;3.95;;;1.35;;
75847;SDS011;73195;47.532;19.082;2023-11-18T08:42:30;3.25;;;1.30;;
75847;SDS011;73195;47.532;19.082;2023-11-18T08:44:57;6.10;;;1.27;;
75847;SDS011;73195;47.532;19.082;2023-11-18T08:47:24;3.47;;;1.55;;
75847;SDS011;73195;47.532;19.082;2023-11-18T08:49:51;2.70;;;1.05;;
75847;SDS011;73195;47.532;19.082;2023-11-18T08:52:20;5.03;;;1.55;;
75847;SDS011;73195;47.532;19.082;2023-11-18T08:54:48;5.93;;;1.48;;
75847;SDS011;73195;47.532;19.082;2023-11-18T08:57:30;5.07;;;1.35;;
75847;SDS011;73195;47.532;19.082;2023-11-18T09:00:14;9.20;;;1.30;;
75847;SDS011;73195;47.532;19.082;2023-11-18T09:03:03;6.18;;;0.80;;
75847;SDS011;73195;47.532;19.082;2023-11-18T09:05:31;3.55;;;1.45;;
75847;SDS011;73195;47.532;19.082;2023-11-18T09:08:01;3.33;;;1.12;;
75847;SDS011;73195;47.532;19.082;2023-11-18T09:10:31;4.87;;;1.15;;
75847;SDS011;73195;47.532;19.082;2023-11-18T09:13:00;3.00;;;1.20;;
75847;SDS011;73195;47.532;19.082;2023-11-18T09:15:29;7.28;;;1.25;;
75847;SDS011;73195;47.532;19.082;2023-11-18T09:17:56;9.35;;;0.95;;
75847;SDS011;73195;47.532;19.082;2023-11-18T09:20:25;3.58;;;1.30;;
75847;SDS011;73195;47.532;19.082;2023-11-18T09:22:52;2.45;;;0.73;;
75847;SDS011;73195;47.532;19.082;2023-11-18T09:25:21;2.80;;;1.05;;
75847;SDS011;73195;47.532;19.082;2023-11-18T09:27:48;3.12;;;0.85;;
75847;SDS011;73195;47.532;19.082;2023-11-18T09:30:17;2.80;;;1.00;;
75847;SDS011;73195;47.532;19.082;2023-11-18T09:32:44;4.93;;;1.17;;
75847;SDS011;73195;47.532;19.082;2023-11-18T09:35:13;5.32;;;1.00;;
75847;SDS011;73195;47.532;19.082;2023-11-18T09:37:40;3.62;;;1.02;;
75847;SDS011;73195;47.532;19.082;2023-11-18T09:40:08;2.92;;;1.05;;
75847;SDS011;73195;47.532;19.082;2023-11-18T09:42:40;3.53;;;1.20;;
75847;SDS011;73195;47.532;19.082;2023-11-18T09:45:09;2.80;;;0.80;;
75847;SDS011;73195;47.532;19.082;2023-11-18T09:47:46;4.70;;;1.20;;
75847;SDS011;73195;47.532;19.082;2023-11-18T09:50:17;2.95;;;1.10;;
75847;SDS011;73195;47.532;19.082;2023-11-18T09:52:48;2.60;;;0.88;;
75847;SDS011;73195;47.532;19.082;2023-11-18T09:55:21;8.13;;;1.20;;
75847;SDS011;73195;47.532;19.082;2023-11-18T09:57:55;2.78;;;1.10;;
75847;SDS011;73195;47.532;19.082;2023-11-18T10:00:29;3.45;;;1.20;;
75847;SDS011;73195;47.532;19.082;2023-11-18T10:03:00;4.28;;;0.95;;
75847;SDS011;73195;47.532;19.082;2023-11-18T10:05:28;3.35;;;1.02;;
75847;SDS011;73195;47.532;19.082;2023-11-18T10:07:55;3.62;;;0.93;;
75847;SDS011;73195;47.532;19.082;2023-11-18T10:10:24;3.28;;;1.00;;
75847;SDS011;73195;47.532;19.082;2023-11-18T10:13:01;3.87;;;0.90;;
75847;SDS011;73195;47.532;19.082;2023-11-18T10:15:30;4.10;;;1.08;;
75847;SDS011;73195;47.532;19.082;2023-11-18T10:17:59;5.43;;;1.10;;
75847;SDS011;73195;47.532;19.082;2023-11-18T10:20:42;7.57;;;1.23;;
75847;SDS011;73195;47.532;19.082;2023-11-18T10:23:11;5.30;;;1.02;;
75847;SDS011;73195;47.532;19.082;2023-11-18T10:25:41;2.72;;;0.77;;
75847;SDS011;73195;47.532;19.082;2023-11-18T10:28:20;3.47;;;0.60;;
75847;SDS011;73195;47.532;19.082;2023-11-18T10:30:48;2.65;;;0.80;;
75847;SDS011;73195;47.532;19.082;2023-11-18T10:33:18;2.75;;;0.60;;
75847;SDS011;73195;47.532;19.082;2023-11-18T10:35:48;1.90;;;0.57;;
75847;SDS011;73195;47.532;19.082;2023-11-18T10:38:17;4.37;;;0.93;;
75847;SDS011;73195;47.532;19.082;2023-11-18T10:40:45;5.32;;;0.70;;
75847;SDS011;73195;47.532;19.082;2023-11-18T10:43:13;3.72;;;0.70;;
75847;SDS011;73195;47.532;19.082;2023-11-18T10:45:42;5.35;;;0.50;;
75847;SDS011;73195;47.532;19.082;2023-11-18T10:48:12;2.10;;;0.60;;
75847;SDS011;73195;47.532;19.082;2023-11-18T10:50:43;1.73;;;0.47;;
75847;SDS011;73195;47.532;19.082;2023-11-18T10:53:12;3.03;;;0.50;;
75847;SDS011;73195;47.532;19.082;2023-11-18T10:55:41;2.42;;;0.45;;
75847;SDS011;73195;47.532;19.082;2023-11-18T10:58:09;4.53;;;0.70;;
75847;SDS011;73195;47.532;19.082;2023-11-18T11:00:46;2.60;;;0.47;;
75847;SDS011;73195;47.532;19.082;2023-11-18T11:03:14;1.73;;;0.40;;
75847;SDS011;73195;47.532;19.082;2023-11-18T11:05:45;1.55;;;0.30;;
75847;SDS011;73195;47.532;19.082;2023-11-18T11:08:13;1.98;;;0.40;;
75847;SDS011;73195;47.532;19.082;2023-11-18T11:10:42;3.35;;;0.40;;
75847;SDS011;73195;47.532;19.082;2023-11-18T11:13:09;1.83;;;0.40;;
75847;SDS011;73195;47.532;19.082;2023-11-18T11:15:40;1.90;;;0.50;;
75847;SDS011;73195;47.532;19.082;2023-11-18T11:18:11;20.90;;;14.82;;
75847;SDS011;73195;47.532;19.082;2023-11-18T11:20:53;2.62;;;0.50;;
75847;SDS011;73195;47.532;19.082;2023-11-18T11:23:30;1.55;;;0.50;;
75847;SDS011;73195;47.532;19.082;2023-11-18T11:26:12;1.60;;;0.40;;
75847;SDS011;73195;47.532;19.082;2023-11-18T11:28:48;2.92;;;0.60;;
75847;SDS011;73195;47.532;19.082;2023-11-18T11:31:23;2.17;;;0.47;;
75847;SDS011;73195;47.532;19.082;2023-11-18T11:33:59;2.33;;;0.30;;
75847;SDS011;73195;47.532;19.082;2023-11-18T11:36:34;1.95;;;0.50;;
75847;SDS011;73195;47.532;19.082;2023-11-18T11:39:06;1.52;;;0.30;;
75847;SDS011;73195;47.532;19.082;2023-11-18T11:41:42;1.62;;;0.40;;
75847;SDS011;73195;47.532;19.082;2023-11-18T11:44:11;2.60;;;0.40;;
75847;SDS011;73195;47.532;19.082;2023-11-18T11:46:39;1.60;;;0.30;;
75847;SDS011;73195;47.532;19.082;2023-11-18T11:49:08;1.77;;;0.40;;
75847;SDS011;73195;47.532;19.082;2023-11-18T11:51:46;1.42;;;0.28;;
75847;SDS011;73195;47.532;19.082;2023-11-18T11:54:16;1.27;;;0.22;;
75847;SDS011;73195;47.532;19.082;2023-11-18T11:56:47;1.83;;;0.20;;
75847;SDS011;73195;47.532;19.082;2023-11-18T11:59:15;2.17;;;0.30;;
75847;SDS011;73195;47.532;19.082;2023-11-18T12:01:42;1.70;;;0.40;;
75847;SDS011;73195;47.532;19.082;2023-11-18T12:04:12;1.80;;;0.32;;
75847;SDS011;73195;47.532;19.082;2023-11-18T12:06:48;1.27;;;0.28;;
75847;SDS011;73195;47.532;19.082;2023-11-18T12:09:19;1.77;;;0.40;;
75847;SDS011;73195;47.532;19.082;2023-11-18T12:11:47;1.00;;;0.20;;
75847;SDS011;73195;47.532;19.082;2023-11-18T12:14:15;1.98;;;0.30;;
75847;SDS011;73195;47.532;19.082;2023-11-18T12:17:07;1.10;;;0.22;;
75847;SDS011;73195;47.532;19.082;2023-11-18T12:19:35;1.58;;;0.40;;
75847;SDS011;73195;47.532;19.082;2023-11-18T12:22:12;1.73;;;0.40;;
75847;SDS011;73195;47.532;19.082;2023-11-18T12:24:44;1.42;;;0.30;;
75847;SDS011;73195;47.532;19.082;2023-11-18T12:27:42;2.53;;;0.32;;
75847;SDS011;73195;47.532;19.082;2023-11-18T12:43:01;1.37;;;0.22;;
75847;SDS011;73195;47.532;19.082;2023-11-18T12:48:32;2.58;;;0.47;;
75847;SDS011;73195;47.532;19.082;2023-11-18T12:51:02;1.58;;;0.30;;
75847;SDS011;73195;47.532;19.082;2023-11-18T12:53:35;1.35;;;0.28;;
75847;SDS011;73195;47.532;19.082;2023-11-18T12:56:03;2.70;;;0.25;;
75847;SDS011;73195;47.532;19.082;2023-11-18T12:58:32;1.55;;;0.30;;
75847;SDS011;73195;47.532;19.082;2023-11-18T13:01:00;1.45;;;0.20;;
75847;SDS011;73195;47.532;19.082;2023-11-18T13:03:29;1.25;;;0.20;;
75847;SDS011;73195;47.532;19.082;2023-11-18T13:05:56;3.42;;;0.40;;
75847;SDS011;73195;47.532;19.082;2023-11-18T13:08:24;1.75;;;0.30;;
75847;SDS011;73195;47.532;19.082;2023-11-18T13:10:54;1.70;;;0.30;;
75847;SDS011;73195;47.532;19.082;2023-11-18T13:13:23;2.67;;;0.40;;
75847;SDS011;73195;47.532;19.082;2023-11-18T13:15:53;2.12;;;0.30;;
75847;SDS011;73195;47.532;19.082;2023-11-18T13:18:20;2.15;;;0.35;;
75847;SDS011;73195;47.532;19.082;2023-11-18T13:20:54;1.77;;;0.30;;
75847;SDS011;73195;47.532;19.082;2023-11-18T13:23:24;1.60;;;0.30;;
75847;SDS011;73195;47.532;19.082;2023-11-18T13:25:53;3.03;;;0.40;;
75847;SDS011;73195;47.532;19.082;2023-11-18T13:28:22;2.00;;;0.40;;
75847;SDS011;73195;47.532;19.082;2023-11-18T13:30:49;3.78;;;0.52;;
75847;SDS011;73195;47.532;19.082;2023-11-18T13:33:18;1.55;;;0.20;;
75847;SDS011;73195;47.532;19.082;2023-11-18T13:35:46;2.90;;;0.30;;
75847;SDS011;73195;47.532;19.082;2023-11-18T13:38:14;1.58;;;0.40;;
75847;SDS011;73195;47.532;19.082;2023-11-18T13:40:44;1.80;;;0.62;;
75847;SDS011;73195;47.532;19.082;2023-11-18T13:43:12;2.83;;;0.30;;
75847;SDS011;73195;47.532;19.082;2023-11-18T13:45:40;2.08;;;0.50;;
75847;SDS011;73195;47.532;19.082;2023-11-18T13:48:07;1.77;;;0.40;;
75847;SDS011;73195;47.532;19.082;2023-11-18T13:50:36;2.50;;;0.47;;
75847;SDS011;73195;47.532;19.082;2023-11-18T13:53:04;2.72;;;0.50;;
75847;SDS011;73195;47.532;19.082;2023-11-18T13:55:33;2.35;;;0.40;;
75847;SDS011;73195;47.532;19.082;2023-11-18T13:58:01;2.00;;;0.20;;
75847;SDS011;73195;47.532;19.082;2023-11-18T14:00:30;2.05;;;0.30;;
75847;SDS011;73195;47.532;19.082;2023-11-18T14:02:58;2.50;;;0.50;;
75847;SDS011;73195;47.532;19.082;2023-11-18T14:05:25;2.03;;;0.50;;
75847;SDS011;73195;47.532;19.082;2023-11-18T14:07:54;2.07;;;0.37;;
75847;SDS011;73195;47.532;19.082;2023-11-18T14:10:24;2.05;;;0.43;;
75847;SDS011;73195;47.532;19.082;2023-11-18T14:13:01;1.80;;;0.37;;
75847;SDS011;73195;47.532;19.082;2023-11-18T14:15:31;1.62;;;0.30;;
75847;SDS011;73195;47.532;19.082;2023-11-18T14:18:00;1.80;;;0.30;;
75847;SDS011;73195;47.532;19.082;2023-11-18T14:20:28;2.08;;;0.40;;
75847;SDS011;73195;47.532;19.082;2023-11-18T14:22:58;1.50;;;0.30;;
75847;SDS011;73195;47.532;19.082;2023-11-18T14:25:25;1.48;;;0.30;;
75847;SDS011;73195;47.532;19.082;2023-11-18T14:27:52;1.92;;;0.50;;
75847;SDS011;73195;47.532;19.082;2023-11-18T14:30:20;2.33;;;0.40;;
75847;SDS011;73195;47.532;19.082;2023-11-18T14:32:49;3.17;;;0.60;;
75847;SDS011;73195;47.532;19.082;2023-11-18T14:35:16;2.75;;;0.47;;
75847;SDS011;73195;47.532;19.082;2023-11-18T14:37:44;3.15;;;0.60;;
75847;SDS011;73195;47.532;19.082;2023-11-18T14:40:12;1.73;;;0.50;;
75847;SDS011;73195;47.532;19.082;2023-11-18T14:42:40;2.47;;;0.57;;
75847;SDS011;73195;47.532;19.082;2023-11-18T14:45:09;2.55;;;0.60;;
75847;SDS011;73195;47.532;19.082;2023-11-18T14:47:37;2.47;;;0.50;;
75847;SDS011;73195;47.532;19.082;2023-11-18T14:50:05;2.60;;;0.50;;
75847;SDS011;73195;47.532;19.082;2023-11-18T14:52:41;2.20;;;0.50;;
75847;SDS011;73195;47.532;19.082;2023-11-18T14:55:08;1.83;;;0.45;;
75847;SDS011;73195;47.532;19.082;2023-11-18T14:57:39;1.67;;;0.32;;
75847;SDS011;73195;47.532;19.082;2023-11-18T15:00:07;1.70;;;0.47;;